createdAt,value
2022-09-27T00:01:24.098Z,0.70
2022-09-27T00:03:55.381Z,1.00
2022-09-27T00:06:28.118Z,0.73
2022-09-27T00:08:55.658Z,0.50
2022-09-27T00:11:28.835Z,0.90
2022-09-27T00:13:57.307Z,1.05
2022-09-27T00:16:25.635Z,1.10
2022-09-27T00:18:53.135Z,1.00
2022-09-27T00:21:20.370Z,0.80
2022-09-27T00:23:47.820Z,1.00
2022-09-27T00:26:15.281Z,0.90
2022-09-27T00:28:43.088Z,0.90
2022-09-27T00:31:29.717Z,0.88
2022-09-27T00:33:58.273Z,0.60
2022-09-27T00:36:25.983Z,0.70
2022-09-27T00:38:54.173Z,0.50
2022-09-27T00:41:29.313Z,0.60
2022-09-27T00:43:57.539Z,0.73
2022-09-27T00:46:34.557Z,0.50
2022-09-27T00:49:05.134Z,0.70
2022-09-27T00:51:35.169Z,0.50
2022-09-27T00:54:02.514Z,0.52
2022-09-27T00:56:31.400Z,0.40
2022-09-27T00:59:09.354Z,0.60
2022-09-27T01:01:36.840Z,0.60
2022-09-27T01:04:04.109Z,0.50
2022-09-27T01:06:31.730Z,0.50
2022-09-27T01:08:58.942Z,0.60
2022-09-27T01:11:26.644Z,0.50
2022-09-27T01:13:53.840Z,0.38
2022-09-27T01:16:47.696Z,0.55
2022-09-27T01:19:17.729Z,0.40
2022-09-27T01:21:54.261Z,0.40
2022-09-27T01:24:40.790Z,0.60
2022-09-27T01:27:14.180Z,0.40
2022-09-27T01:30:00.441Z,0.60
2022-09-27T01:32:47.911Z,0.50
2022-09-27T01:35:18.793Z,0.50
2022-09-27T01:37:53.735Z,0.60
2022-09-27T01:40:44.798Z,0.70
2022-09-27T01:43:27.684Z,0.60
2022-09-27T01:46:00.727Z,0.50
2022-09-27T01:48:32.007Z,0.60
2022-09-27T01:51:02.162Z,0.50
2022-09-27T01:53:48.826Z,0.70
2022-09-27T01:56:19.394Z,1.90
2022-09-27T01:58:53.368Z,0.68
2022-09-27T02:01:22.443Z,0.70
2022-09-27T02:03:52.384Z,0.40
2022-09-27T02:06:19.776Z,0.80
2022-09-27T02:08:59.502Z,0.80
2022-09-27T02:11:28.017Z,1.02
2022-09-27T02:14:09.918Z,0.60
2022-09-27T02:16:48.030Z,0.88
2022-09-27T02:19:38.571Z,0.70
2022-09-27T02:22:05.828Z,0.60
2022-09-27T02:24:38.337Z,0.63
2022-09-27T02:27:18.897Z,0.85
2022-09-27T02:29:47.959Z,0.60
2022-09-27T02:32:15.474Z,0.60
2022-09-27T02:34:43.731Z,0.60
2022-09-27T02:37:11.033Z,0.60
2022-09-27T02:39:38.741Z,0.80
2022-09-27T02:42:06.466Z,0.50
2022-09-27T02:44:33.813Z,0.70
2022-09-27T02:47:20.835Z,0.60
2022-09-27T02:49:48.072Z,0.70
2022-09-27T02:52:39.740Z,0.60
2022-09-27T02:55:19.517Z,1.10
2022-09-27T02:57:59.036Z,1.33
2022-09-27T03:00:31.382Z,1.17
2022-09-27T03:03:15.996Z,1.20
2022-09-27T03:05:45.656Z,0.90
2022-09-27T03:08:13.738Z,0.90
2022-09-27T03:10:41.038Z,0.95
2022-09-27T03:13:08.300Z,0.60
2022-09-27T03:15:35.712Z,0.80
2022-09-27T03:18:03.596Z,0.70
2022-09-27T03:20:31.907Z,0.70
2022-09-27T03:22:59.179Z,0.80
2022-09-27T03:25:27.156Z,0.65
2022-09-27T03:27:54.428Z,0.90
2022-09-27T03:30:21.947Z,0.80
2022-09-27T03:32:49.167Z,0.80
2022-09-27T03:35:16.415Z,0.85
2022-09-27T03:37:43.715Z,0.95
2022-09-27T03:40:11.695Z,0.80
2022-09-27T03:42:39.388Z,0.90
2022-09-27T03:45:06.859Z,1.75
2022-09-27T03:47:34.072Z,0.90
2022-09-27T03:50:01.327Z,0.90
2022-09-27T03:52:28.549Z,0.90
2022-09-27T03:55:01.800Z,1.13
2022-09-27T03:57:30.933Z,1.08
2022-09-27T04:00:00.078Z,0.90
2022-09-27T04:02:28.040Z,1.10
2022-09-27T04:04:55.331Z,0.88
2022-09-27T04:07:23.742Z,1.10
2022-09-27T04:09:51.068Z,1.40
2022-09-27T04:12:18.439Z,1.10
2022-09-27T04:14:45.844Z,1.40
2022-09-27T04:17:13.246Z,1.20
2022-09-27T04:19:40.726Z,1.00
2022-09-27T04:22:08.252Z,1.30
2022-09-27T04:24:35.648Z,1.73
2022-09-27T04:27:02.893Z,1.50
2022-09-27T04:29:30.107Z,1.50
2022-09-27T04:31:57.532Z,1.20
2022-09-27T04:34:46.094Z,1.40
2022-09-27T04:37:14.060Z,1.77
2022-09-27T04:39:41.265Z,1.63
2022-09-27T04:42:09.443Z,1.55
2022-09-27T04:44:36.668Z,1.33
2022-09-27T04:47:03.928Z,1.38
2022-09-27T04:49:31.265Z,1.98
2022-09-27T04:51:58.717Z,1.90
2022-09-27T04:54:25.991Z,1.77
2022-09-27T04:56:53.444Z,1.67
2022-09-27T04:59:21.110Z,2.30
2022-09-27T05:01:49.628Z,2.15
2022-09-27T05:04:17.077Z,2.88
2022-09-27T05:06:44.498Z,2.42
2022-09-27T05:09:11.770Z,2.50
2022-09-27T05:11:39.169Z,2.20
2022-09-27T05:14:06.620Z,2.10
2022-09-27T05:16:36.239Z,2.67
2022-09-27T05:19:04.350Z,2.03
2022-09-27T05:21:31.968Z,2.88
2022-09-27T05:24:01.245Z,2.03
2022-09-27T05:26:28.587Z,2.78
2022-09-27T05:28:55.873Z,2.08
2022-09-27T05:31:23.227Z,3.63
2022-09-27T05:33:50.501Z,2.30
2022-09-27T05:36:17.800Z,2.50
2022-09-27T05:38:45.214Z,2.72
2022-09-27T05:41:13.392Z,2.65
2022-09-27T05:43:40.659Z,2.47
2022-09-27T05:46:08.054Z,2.70
2022-09-27T05:48:35.394Z,2.17
2022-09-27T05:51:02.600Z,2.13
2022-09-27T05:53:29.942Z,1.98
2022-09-27T05:55:57.224Z,2.63
2022-09-27T05:58:25.637Z,2.10
2022-09-27T06:00:53.116Z,1.95
2022-09-27T06:03:20.570Z,1.88
2022-09-27T06:05:51.315Z,2.20
2022-09-27T06:08:20.495Z,2.00
2022-09-27T06:10:48.296Z,1.75
2022-09-27T06:13:16.610Z,2.00
2022-09-27T06:15:47.484Z,1.90
2022-09-27T06:18:18.762Z,1.60
2022-09-27T06:20:46.301Z,1.52
2022-09-27T06:23:13.526Z,1.50
2022-09-27T06:25:41.236Z,1.30
2022-09-27T06:28:09.948Z,1.17
2022-09-27T06:30:40.931Z,1.10
2022-09-27T06:33:08.633Z,0.95
2022-09-27T06:35:36.657Z,1.05
2022-09-27T06:38:09.014Z,1.38
2022-09-27T06:40:36.547Z,1.30
2022-09-27T06:43:10.719Z,1.17
2022-09-27T06:45:38.344Z,1.20
2022-09-27T06:48:06.375Z,1.40
2022-09-27T06:50:34.690Z,1.90
2022-09-27T06:53:02.393Z,2.80
2022-09-27T06:55:29.837Z,2.20
2022-09-27T06:58:16.544Z,2.50
2022-09-27T07:00:44.416Z,1.50
2022-09-27T07:03:11.980Z,1.33
2022-09-27T07:05:39.649Z,1.85
2022-09-27T07:08:06.890Z,1.33
2022-09-27T07:10:35.411Z,0.88
2022-09-27T07:13:07.525Z,1.10
2022-09-27T07:15:38.224Z,0.90
2022-09-27T07:18:06.435Z,1.10
2022-09-27T07:20:37.237Z,1.02
2022-09-27T07:23:05.747Z,0.80
2022-09-27T07:25:33.710Z,1.10
2022-09-27T07:28:05.389Z,1.10
2022-09-27T07:30:33.587Z,0.90
2022-09-27T07:33:01.871Z,0.80
2022-09-27T07:35:32.315Z,0.80
2022-09-27T07:37:59.806Z,0.55
2022-09-27T07:40:27.414Z,1.15
2022-09-27T07:42:55.694Z,0.60
2022-09-27T07:45:23.465Z,0.80
2022-09-27T07:47:51.384Z,0.90
2022-09-27T07:50:18.714Z,0.82
2022-09-27T07:52:47.140Z,0.95
2022-09-27T07:55:15.162Z,0.80
2022-09-27T07:57:42.514Z,1.10
2022-09-27T08:00:11.351Z,0.77
2022-09-27T08:02:38.881Z,0.68
2022-09-27T08:05:06.404Z,1.30
2022-09-27T08:07:33.916Z,1.52
2022-09-27T08:10:01.285Z,1.38
2022-09-27T08:12:28.580Z,1.25
2022-09-27T08:14:58.685Z,1.98
2022-09-27T08:17:26.129Z,0.70
2022-09-27T08:19:53.741Z,1.17
2022-09-27T08:22:21.569Z,1.02
2022-09-27T08:24:49.391Z,0.77
2022-09-27T08:27:17.066Z,0.68
2022-09-27T08:29:44.378Z,0.82
2022-09-27T08:32:12.764Z,0.63
2022-09-27T08:34:40.354Z,0.90
2022-09-27T08:37:07.811Z,0.70
2022-09-27T08:39:35.093Z,2.45
2022-09-27T08:42:06.087Z,1.00
2022-09-27T08:44:36.443Z,0.90
2022-09-27T08:47:16.564Z,1.00
2022-09-27T08:49:50.385Z,1.17
2022-09-27T08:52:21.235Z,1.00
2022-09-27T08:54:49.692Z,1.10
2022-09-27T08:57:18.171Z,0.73
2022-09-27T08:59:51.487Z,1.05
2022-09-27T09:02:20.423Z,0.98
2022-09-27T09:04:49.954Z,1.05
2022-09-27T09:07:17.245Z,0.98
2022-09-27T09:10:03.196Z,0.80
2022-09-27T09:12:50.481Z,0.90
2022-09-27T09:15:54.458Z,0.80
2022-09-27T09:18:34.516Z,0.70
2022-09-27T09:21:12.560Z,0.93
2022-09-27T09:23:46.002Z,0.98
2022-09-27T09:26:45.858Z,1.13
2022-09-27T09:29:22.910Z,1.13
2022-09-27T09:31:53.183Z,0.90
2022-09-27T09:34:26.524Z,1.15
2022-09-27T09:36:57.996Z,0.82
2022-09-27T09:39:40.430Z,1.23
2022-09-27T09:42:20.089Z,0.93
2022-09-27T09:44:51.922Z,0.70
2022-09-27T09:47:29.719Z,0.95
2022-09-27T09:50:00.807Z,0.80
2022-09-27T09:52:33.959Z,0.80
2022-09-27T09:55:14.675Z,1.13
2022-09-27T09:57:45.608Z,0.80
2022-09-27T10:00:17.092Z,0.98
2022-09-27T10:02:45.780Z,1.02
2022-09-27T10:05:19.452Z,0.65
2022-09-27T10:07:48.029Z,0.90
2022-09-27T10:10:17.101Z,0.90
2022-09-27T10:12:45.309Z,0.70
2022-09-27T10:15:18.347Z,0.70
2022-09-27T10:17:54.535Z,1.40
2022-09-27T10:20:37.971Z,0.88
2022-09-27T10:23:10.610Z,1.15
2022-09-27T10:25:56.793Z,1.10
2022-09-27T10:28:46.149Z,0.93
2022-09-27T10:31:15.315Z,1.00
2022-09-27T10:33:59.992Z,1.10
2022-09-27T10:36:29.396Z,1.27
2022-09-27T10:39:00.960Z,1.20
2022-09-27T10:41:38.530Z,1.20
2022-09-27T10:44:18.358Z,1.77
2022-09-27T10:46:46.975Z,1.40
2022-09-27T10:49:26.331Z,1.40
2022-09-27T10:51:55.773Z,1.45
2022-09-27T10:54:24.907Z,1.20
2022-09-27T10:56:57.411Z,1.30
2022-09-27T10:59:25.032Z,1.17
2022-09-27T11:01:53.301Z,1.50
2022-09-27T11:04:30.177Z,0.93
2022-09-27T11:07:18.730Z,1.73
2022-09-27T11:10:09.764Z,1.30
2022-09-27T11:12:40.716Z,1.77
2022-09-27T11:15:16.330Z,1.48
2022-09-27T11:17:43.664Z,1.88
2022-09-27T11:20:29.770Z,1.52
2022-09-27T11:22:57.250Z,2.30
2022-09-27T11:25:31.831Z,2.13
2022-09-27T11:28:08.877Z,1.98
2022-09-27T11:30:45.273Z,2.30
2022-09-27T11:33:31.356Z,2.40
2022-09-27T11:36:04.873Z,2.53
2022-09-27T11:38:52.272Z,2.50
2022-09-27T11:41:22.959Z,2.30
2022-09-27T11:43:53.293Z,4.15
2022-09-27T11:46:26.627Z,2.58
2022-09-27T11:49:17.470Z,3.88
2022-09-27T11:51:48.129Z,3.22
2022-09-27T11:54:18.627Z,4.88
2022-09-27T11:56:46.026Z,3.53
2022-09-27T11:59:16.223Z,3.33
2022-09-27T12:01:49.600Z,3.90
2022-09-27T12:04:32.329Z,6.15
2022-09-27T12:06:59.612Z,3.50
2022-09-27T12:09:35.836Z,4.20
2022-09-27T12:12:12.637Z,5.03
2022-09-27T12:14:42.015Z,6.00
2022-09-27T12:17:13.255Z,4.57
2022-09-27T12:19:43.302Z,5.00
2022-09-27T12:22:15.442Z,4.10
2022-09-27T12:24:48.252Z,3.17
2022-09-27T12:27:23.793Z,3.17
2022-09-27T12:29:56.277Z,3.03
2022-09-27T12:32:28.848Z,2.80
2022-09-27T12:34:59.120Z,3.33
2022-09-27T12:37:49.535Z,3.00
2022-09-27T12:40:19.121Z,2.80
2022-09-27T12:43:06.842Z,2.30
2022-09-27T12:45:37.145Z,1.95
2022-09-27T12:48:19.320Z,1.90
2022-09-27T12:51:13.001Z,2.00
2022-09-27T12:53:52.670Z,2.22
2022-09-27T12:56:26.066Z,1.90
2022-09-27T12:59:00.098Z,2.10
2022-09-27T13:01:27.478Z,1.50
2022-09-27T13:03:54.977Z,1.67
2022-09-27T13:06:29.559Z,1.40
2022-09-27T13:09:12.029Z,1.23
2022-09-27T13:11:54.882Z,1.23
2022-09-27T13:14:24.811Z,0.90
2022-09-27T13:16:52.169Z,0.85
2022-09-27T13:19:28.620Z,1.00
2022-09-27T13:21:57.050Z,1.27
2022-09-27T13:24:40.135Z,1.02
2022-09-27T13:27:26.356Z,1.40
2022-09-27T13:29:54.081Z,1.45
2022-09-27T13:32:22.818Z,1.17
2022-09-27T13:34:54.933Z,1.40
2022-09-27T13:37:37.654Z,1.50
2022-09-27T13:40:17.337Z,1.23
2022-09-27T13:43:05.137Z,1.33
2022-09-27T13:45:35.395Z,1.40
2022-09-27T13:48:08.936Z,1.55
2022-09-27T13:50:51.613Z,1.75
2022-09-27T13:53:23.152Z,1.60
2022-09-27T13:55:51.511Z,1.90
2022-09-27T13:58:18.813Z,1.55
2022-09-27T14:00:51.436Z,1.33
2022-09-27T14:03:48.178Z,1.30
2022-09-27T14:06:18.604Z,1.50
2022-09-27T14:08:52.351Z,1.85
2022-09-27T14:11:24.685Z,1.50
2022-09-27T14:13:53.228Z,1.08
2022-09-27T14:16:21.462Z,1.20
2022-09-27T14:18:54.527Z,1.10
2022-09-27T14:21:28.481Z,1.20
2022-09-27T14:23:55.887Z,1.10
2022-09-27T14:26:25.226Z,1.02
2022-09-27T14:28:53.097Z,1.20
2022-09-27T14:31:23.129Z,1.30
2022-09-27T14:33:50.951Z,1.42
2022-09-27T14:36:39.748Z,1.70
2022-09-27T14:39:13.981Z,3.72
2022-09-27T14:41:41.421Z,1.08
2022-09-27T14:44:15.367Z,1.73
2022-09-27T14:46:42.705Z,1.00
2022-09-27T14:49:19.185Z,1.00
2022-09-27T14:51:51.687Z,1.17
2022-09-27T14:54:25.493Z,1.45
2022-09-27T14:56:54.711Z,1.35
2022-09-27T14:59:27.448Z,1.48
2022-09-27T15:01:55.117Z,1.02
2022-09-27T15:04:24.388Z,1.15
2022-09-27T15:06:52.489Z,1.35
2022-09-27T15:09:20.325Z,1.58
2022-09-27T15:11:53.083Z,1.00
2022-09-27T15:14:20.801Z,1.77
2022-09-27T15:16:52.641Z,1.30
2022-09-27T15:19:28.007Z,1.80
2022-09-27T15:21:55.867Z,1.77
2022-09-27T15:24:45.383Z,1.95
2022-09-27T15:27:18.213Z,2.35
2022-09-27T15:29:52.439Z,2.83
2022-09-27T15:32:21.640Z,1.60
2022-09-27T15:34:49.023Z,2.25
2022-09-27T15:37:37.028Z,1.60
2022-09-27T15:40:17.180Z,1.05
2022-09-27T15:42:58.143Z,1.25
2022-09-27T15:45:36.296Z,1.85
2022-09-27T15:48:14.355Z,1.45
2022-09-27T15:50:41.867Z,1.52
2022-09-27T15:53:10.190Z,1.50
2022-09-27T15:55:43.069Z,1.42
2022-09-27T15:58:16.945Z,7.47
2022-09-27T16:00:57.839Z,10.57
2022-09-27T16:03:26.065Z,11.48
2022-09-27T16:05:55.591Z,4.00
2022-09-27T16:08:23.335Z,1.80
2022-09-27T16:10:52.347Z,1.80
2022-09-27T16:13:19.740Z,2.50
2022-09-27T16:15:47.943Z,1.92
2022-09-27T16:18:15.588Z,2.30
2022-09-27T16:20:43.182Z,1.50
2022-09-27T16:23:10.649Z,1.30
2022-09-27T16:25:38.018Z,1.48
2022-09-27T16:28:05.850Z,2.15
2022-09-27T16:30:33.351Z,1.83
2022-09-27T16:33:00.800Z,3.20
2022-09-27T16:35:28.585Z,32.65
2022-09-27T16:37:55.940Z,6.20
2022-09-27T16:40:23.505Z,3.47
2022-09-27T16:42:51.472Z,2.20
2022-09-27T16:45:19.714Z,1.48
2022-09-27T16:47:47.212Z,1.52
2022-09-27T16:50:33.724Z,1.88
2022-09-27T16:53:01.020Z,1.67
2022-09-27T16:55:29.481Z,2.63
2022-09-27T16:57:59.969Z,2.60
2022-09-27T17:00:28.033Z,1.83
2022-09-27T17:02:55.692Z,1.75
2022-09-27T17:05:23.263Z,1.70
2022-09-27T17:07:51.396Z,1.20
2022-09-27T17:10:19.639Z,1.50
2022-09-27T17:12:47.622Z,1.30
2022-09-27T17:15:15.878Z,1.25
2022-09-27T17:17:45.273Z,1.73
2022-09-27T17:20:12.936Z,1.52
2022-09-27T17:22:40.244Z,1.40
2022-09-27T17:25:08.046Z,1.40
2022-09-27T17:27:35.563Z,1.52
2022-09-27T17:30:02.908Z,1.33
2022-09-27T17:32:30.156Z,2.15
2022-09-27T17:34:59.029Z,2.42
2022-09-27T17:37:26.414Z,4.20
2022-09-27T17:39:53.795Z,3.80
2022-09-27T17:42:21.061Z,2.95
2022-09-27T17:44:48.346Z,3.20
2022-09-27T17:47:34.330Z,2.13
2022-09-27T17:50:20.601Z,2.45
2022-09-27T17:52:47.840Z,6.50
2022-09-27T17:55:15.446Z,7.40
2022-09-27T17:57:42.825Z,3.60
2022-09-27T18:00:10.657Z,2.70
2022-09-27T18:02:38.203Z,2.72
2022-09-27T18:05:05.951Z,3.78
2022-09-27T18:07:33.600Z,1.33
2022-09-27T18:10:00.918Z,1.50
2022-09-27T18:12:35.012Z,4.50
2022-09-27T18:15:02.886Z,3.42
2022-09-27T18:17:30.790Z,2.15
2022-09-27T18:20:00.106Z,1.88
2022-09-27T18:22:31.277Z,2.10
2022-09-27T18:24:58.709Z,3.60
2022-09-27T18:27:26.060Z,2.40
2022-09-27T18:29:54.118Z,3.50
2022-09-27T18:32:21.461Z,3.03
2022-09-27T18:34:48.852Z,3.45
2022-09-27T18:37:16.225Z,3.28
2022-09-27T18:39:43.695Z,2.40
2022-09-27T18:42:11.022Z,2.90
2022-09-27T18:44:38.341Z,2.90
2022-09-27T18:47:05.877Z,2.30
2022-09-27T18:49:34.259Z,3.67
2022-09-27T18:52:02.836Z,3.72
2022-09-27T18:54:30.200Z,3.58
2022-09-27T18:56:57.496Z,2.92
2022-09-27T18:59:24.763Z,3.45
2022-09-27T19:01:52.719Z,3.10
2022-09-27T19:04:24.319Z,3.42
2022-09-27T19:06:52.290Z,3.50
2022-09-27T19:09:19.728Z,5.03
2022-09-27T19:11:47.190Z,2.90
2022-09-27T19:14:19.624Z,2.97
2022-09-27T19:16:48.286Z,3.50
2022-09-27T19:19:16.470Z,2.97
2022-09-27T19:21:43.925Z,2.88
2022-09-27T19:24:11.942Z,3.00
2022-09-27T19:26:39.518Z,3.85
2022-09-27T19:29:07.285Z,3.13
2022-09-27T19:31:36.066Z,2.67
2022-09-27T19:34:03.951Z,3.63
2022-09-27T19:36:31.631Z,5.03
2022-09-27T19:39:00.337Z,13.25
2022-09-27T19:41:27.770Z,16.85
2022-09-27T19:43:56.086Z,12.60
2022-09-27T19:46:24.643Z,9.90
2022-09-27T19:48:52.559Z,8.35
2022-09-27T19:51:20.966Z,8.20
2022-09-27T19:53:48.557Z,9.05
2022-09-27T19:56:15.985Z,7.90
2022-09-27T19:58:44.150Z,5.75
2022-09-27T20:01:16.189Z,3.72
2022-09-27T20:03:44.391Z,2.85
2022-09-27T20:06:12.906Z,3.42
2022-09-27T20:08:40.209Z,2.95
2022-09-27T20:11:09.003Z,2.97
2022-09-27T20:13:36.684Z,2.75
2022-09-27T20:16:12.914Z,2.88
2022-09-27T20:18:44.369Z,3.03
2022-09-27T20:21:12.107Z,3.08
2022-09-27T20:23:39.586Z,4.15
2022-09-27T20:26:07.821Z,2.97
2022-09-27T20:28:36.015Z,2.95
2022-09-27T20:31:04.556Z,2.60
2022-09-27T20:33:44.832Z,2.50
2022-09-27T20:36:13.350Z,2.50
2022-09-27T20:38:41.511Z,2.95
2022-09-27T20:41:10.212Z,3.70
2022-09-27T20:43:37.896Z,5.05
2022-09-27T20:46:09.671Z,8.20
2022-09-27T20:48:38.509Z,7.85
2022-09-27T20:51:06.735Z,3.30
2022-09-27T20:53:34.192Z,2.90
2022-09-27T20:56:02.975Z,2.58
2022-09-27T20:58:31.210Z,3.08
2022-09-27T21:00:59.064Z,4.65
2022-09-27T21:03:26.631Z,3.72
2022-09-27T21:05:55.095Z,3.13
2022-09-27T21:08:22.830Z,3.08
2022-09-27T21:10:52.876Z,3.45
2022-09-27T21:13:20.936Z,3.45
2022-09-27T21:15:48.753Z,3.72
2022-09-27T21:18:16.510Z,3.15
2022-09-27T21:20:44.892Z,4.90
2022-09-27T21:23:12.408Z,5.35
2022-09-27T21:25:39.799Z,5.55
2022-09-27T21:28:07.041Z,3.95
2022-09-27T21:30:36.354Z,3.20
2022-09-27T21:33:03.941Z,3.03
2022-09-27T21:35:31.399Z,3.50
2022-09-27T21:37:58.816Z,3.33
2022-09-27T21:40:27.914Z,3.28
2022-09-27T21:42:57.764Z,4.03
2022-09-27T21:45:25.291Z,4.10
2022-09-27T21:47:52.652Z,4.00
2022-09-27T21:50:20.084Z,4.00
2022-09-27T21:52:47.350Z,4.13
2022-09-27T21:55:14.643Z,4.10
2022-09-27T21:57:42.014Z,3.70
2022-09-27T22:00:09.770Z,4.10
2022-09-27T22:02:37.188Z,4.40
2022-09-27T22:05:04.743Z,4.10
2022-09-27T22:07:31.959Z,3.65
2022-09-27T22:09:59.298Z,3.80
2022-09-27T22:12:26.535Z,4.90
2022-09-27T22:14:53.816Z,5.68
2022-09-27T22:17:21.074Z,5.10
2022-09-27T22:19:48.465Z,4.88
2022-09-27T22:22:15.724Z,4.68
2022-09-27T22:24:42.947Z,4.80
2022-09-27T22:27:10.261Z,4.30
2022-09-27T22:29:37.630Z,4.80
2022-09-27T22:32:04.954Z,4.78
2022-09-27T22:34:32.241Z,4.78
2022-09-27T22:37:00.956Z,4.63
2022-09-27T22:39:29.026Z,4.38
2022-09-27T22:41:56.721Z,4.57
2022-09-27T22:44:24.268Z,4.07
2022-09-27T22:46:51.781Z,4.38
2022-09-27T22:49:19.087Z,4.63
2022-09-27T22:51:46.533Z,4.30
2022-09-27T22:54:13.977Z,4.53
2022-09-27T22:56:41.346Z,4.30
2022-09-27T22:59:08.661Z,3.47
2022-09-27T23:01:37.002Z,3.42
2022-09-27T23:04:04.521Z,4.00
2022-09-27T23:06:33.636Z,3.80
2022-09-27T23:09:02.078Z,3.70
2022-09-27T23:11:31.092Z,3.55
2022-09-27T23:13:58.411Z,3.25
2022-09-27T23:16:25.761Z,3.20
2022-09-27T23:18:54.366Z,3.33
2022-09-27T23:21:24.896Z,3.40
2022-09-27T23:23:53.111Z,3.25
2022-09-27T23:26:24.300Z,3.00
2022-09-27T23:28:54.750Z,3.10
2022-09-27T23:31:24.002Z,3.60
2022-09-27T23:33:52.221Z,3.83
2022-09-27T23:36:20.733Z,3.47
2022-09-27T23:38:48.809Z,3.10
2022-09-27T23:41:17.082Z,2.92
2022-09-27T23:43:44.662Z,4.65
2022-09-27T23:46:12.357Z,3.60
2022-09-27T23:48:40.240Z,3.88
2022-09-27T23:51:08.660Z,3.20
2022-09-27T23:53:36.037Z,3.03
2022-09-27T23:56:07.592Z,3.47
2022-09-27T23:58:39.528Z,3.75
